sensor_id;sensor_type;location;lat;lon;timestamp;P1;durP1;ratioP1;P2;durP2;ratioP2
27161;SDS011;54464;50.558;9.704;2022-12-11T00:02:18;22.13;;;16.00;;
27161;SDS011;54464;50.558;9.704;2022-12-11T00:04:43;23.23;;;15.27;;
27161;SDS011;54464;50.558;9.704;2022-12-11T00:07:09;20.63;;;14.53;;
27161;SDS011;54464;50.558;9.704;2022-12-11T00:09:35;19.67;;;14.50;;
27161;SDS011;54464;50.558;9.704;2022-12-11T00:12:00;24.07;;;16.47;;
27161;SDS011;54464;50.558;9.704;2022-12-11T00:14:30;20.43;;;14.30;;
27161;SDS011;54464;50.558;9.704;2022-12-11T00:16:56;23.03;;;16.07;;
27161;SDS011;54464;50.558;9.704;2022-12-11T00:19:21;20.13;;;14.93;;
27161;SDS011;54464;50.558;9.704;2022-12-11T00:21:47;16.67;;;13.33;;
27161;SDS011;54464;50.558;9.704;2022-12-11T00:24:13;15.30;;;11.47;;
27161;SDS011;54464;50.558;9.704;2022-12-11T00:26:38;15.60;;;11.50;;
27161;SDS011;54464;50.558;9.704;2022-12-11T00:29:04;16.97;;;11.83;;
27161;SDS011;54464;50.558;9.704;2022-12-11T00:31:32;15.80;;;12.07;;
27161;SDS011;54464;50.558;9.704;2022-12-11T00:33:59;18.47;;;12.77;;
27161;SDS011;54464;50.558;9.704;2022-12-11T00:36:26;17.37;;;13.07;;
27161;SDS011;54464;50.558;9.704;2022-12-11T00:38:52;17.20;;;13.27;;
27161;SDS011;54464;50.558;9.704;2022-12-11T00:41:18;19.93;;;13.60;;
27161;SDS011;54464;50.558;9.704;2022-12-11T00:43:44;18.30;;;13.30;;
27161;SDS011;54464;50.558;9.704;2022-12-11T00:46:10;18.23;;;13.20;;
27161;SDS011;54464;50.558;9.704;2022-12-11T00:48:36;17.40;;;12.73;;
27161;SDS011;54464;50.558;9.704;2022-12-11T00:51:02;18.40;;;12.63;;
27161;SDS011;54464;50.558;9.704;2022-12-11T00:53:28;19.67;;;14.17;;
27161;SDS011;54464;50.558;9.704;2022-12-11T00:55:54;17.40;;;12.73;;
27161;SDS011;54464;50.558;9.704;2022-12-11T00:58:20;17.47;;;12.93;;
27161;SDS011;54464;50.558;9.704;2022-12-11T01:00:46;17.63;;;12.93;;
27161;SDS011;54464;50.558;9.704;2022-12-11T01:03:14;24.73;;;15.57;;
27161;SDS011;54464;50.558;9.704;2022-12-11T01:05:40;36.57;;;20.57;;
27161;SDS011;54464;50.558;9.704;2022-12-11T01:08:06;83.17;;;37.80;;
27161;SDS011;54464;50.558;9.704;2022-12-11T01:10:31;29.33;;;18.43;;
27161;SDS011;54464;50.558;9.704;2022-12-11T01:13:01;20.23;;;14.07;;
27161;SDS011;54464;50.558;9.704;2022-12-11T01:15:30;21.17;;;13.97;;
27161;SDS011;54464;50.558;9.704;2022-12-11T01:17:58;18.10;;;12.40;;
27161;SDS011;54464;50.558;9.704;2022-12-11T01:20:24;18.77;;;12.57;;
27161;SDS011;54464;50.558;9.704;2022-12-11T01:22:51;18.33;;;12.80;;
27161;SDS011;54464;50.558;9.704;2022-12-11T01:25:18;18.23;;;12.87;;
27161;SDS011;54464;50.558;9.704;2022-12-11T01:27:44;17.37;;;12.77;;
27161;SDS011;54464;50.558;9.704;2022-12-11T01:30:11;18.20;;;12.50;;
27161;SDS011;54464;50.558;9.704;2022-12-11T01:32:38;18.33;;;12.80;;
27161;SDS011;54464;50.558;9.704;2022-12-11T01:35:04;19.20;;;13.47;;
27161;SDS011;54464;50.558;9.704;2022-12-11T01:37:31;18.10;;;13.43;;
27161;SDS011;54464;50.558;9.704;2022-12-11T01:39:57;18.30;;;13.50;;
27161;SDS011;54464;50.558;9.704;2022-12-11T01:42:22;18.07;;;12.73;;
27161;SDS011;54464;50.558;9.704;2022-12-11T01:47:14;26.20;;;15.87;;
27161;SDS011;54464;50.558;9.704;2022-12-11T01:49:41;28.53;;;17.63;;
27161;SDS011;54464;50.558;9.704;2022-12-11T01:52:11;42.77;;;23.83;;
27161;SDS011;54464;50.558;9.704;2022-12-11T01:54:42;23.23;;;14.73;;
27161;SDS011;54464;50.558;9.704;2022-12-11T01:57:09;22.73;;;15.40;;
27161;SDS011;54464;50.558;9.704;2022-12-11T01:59:39;30.73;;;21.50;;
27161;SDS011;54464;50.558;9.704;2022-12-11T02:02:08;16.10;;;11.60;;
27161;SDS011;54464;50.558;9.704;2022-12-11T02:04:41;19.20;;;13.17;;
27161;SDS011;54464;50.558;9.704;2022-12-11T02:07:08;13.03;;;9.27;;
27161;SDS011;54464;50.558;9.704;2022-12-11T02:09:35;12.60;;;9.03;;
27161;SDS011;54464;50.558;9.704;2022-12-11T02:12:19;13.20;;;10.40;;
27161;SDS011;54464;50.558;9.704;2022-12-11T02:22:58;14.50;;;10.33;;
27161;SDS011;54464;50.558;9.704;2022-12-11T02:28:17;13.73;;;9.73;;
27161;SDS011;54464;50.558;9.704;2022-12-11T02:30:51;12.47;;;9.77;;
27161;SDS011;54464;50.558;9.704;2022-12-11T02:33:24;13.23;;;10.57;;
27161;SDS011;54464;50.558;9.704;2022-12-11T02:36:03;15.23;;;11.30;;
27161;SDS011;54464;50.558;9.704;2022-12-11T02:38:32;15.50;;;10.63;;
27161;SDS011;54464;50.558;9.704;2022-12-11T02:41:01;14.47;;;10.77;;
27161;SDS011;54464;50.558;9.704;2022-12-11T02:43:29;16.77;;;12.77;;
27161;SDS011;54464;50.558;9.704;2022-12-11T02:45:57;16.63;;;12.00;;
27161;SDS011;54464;50.558;9.704;2022-12-11T02:48:24;14.13;;;10.37;;
27161;SDS011;54464;50.558;9.704;2022-12-11T02:50:51;14.63;;;11.47;;
27161;SDS011;54464;50.558;9.704;2022-12-11T02:53:22;15.77;;;11.83;;
27161;SDS011;54464;50.558;9.704;2022-12-11T02:55:55;14.27;;;10.70;;
27161;SDS011;54464;50.558;9.704;2022-12-11T02:58:27;16.73;;;12.10;;
27161;SDS011;54464;50.558;9.704;2022-12-11T03:00:56;14.90;;;11.07;;
27161;SDS011;54464;50.558;9.704;2022-12-11T03:03:21;15.47;;;11.83;;
27161;SDS011;54464;50.558;9.704;2022-12-11T03:05:47;12.47;;;9.63;;
27161;SDS011;54464;50.558;9.704;2022-12-11T03:08:13;12.17;;;9.57;;
27161;SDS011;54464;50.558;9.704;2022-12-11T03:10:41;12.93;;;9.97;;
27161;SDS011;54464;50.558;9.704;2022-12-11T03:13:07;11.77;;;9.27;;
27161;SDS011;54464;50.558;9.704;2022-12-11T03:18:34;13.17;;;9.57;;
27161;SDS011;54464;50.558;9.704;2022-12-11T03:21:13;13.33;;;10.37;;
27161;SDS011;54464;50.558;9.704;2022-12-11T03:24:03;16.30;;;11.03;;
27161;SDS011;54464;50.558;9.704;2022-12-11T03:26:57;14.23;;;10.80;;
27161;SDS011;54464;50.558;9.704;2022-12-11T03:29:34;12.27;;;9.83;;
27161;SDS011;54464;50.558;9.704;2022-12-11T03:37:26;12.27;;;9.30;;
27161;SDS011;54464;50.558;9.704;2022-12-11T03:39:57;13.23;;;9.97;;
27161;SDS011;54464;50.558;9.704;2022-12-11T03:42:26;12.63;;;9.63;;
27161;SDS011;54464;50.558;9.704;2022-12-11T03:44:53;12.30;;;9.07;;
27161;SDS011;54464;50.558;9.704;2022-12-11T03:47:21;11.77;;;9.40;;
27161;SDS011;54464;50.558;9.704;2022-12-11T03:49:49;10.63;;;8.30;;
27161;SDS011;54464;50.558;9.704;2022-12-11T03:52:17;11.57;;;8.30;;
27161;SDS011;54464;50.558;9.704;2022-12-11T03:54:45;10.97;;;8.83;;
27161;SDS011;54464;50.558;9.704;2022-12-11T03:57:14;12.40;;;8.70;;
27161;SDS011;54464;50.558;9.704;2022-12-11T03:59:44;12.60;;;9.43;;
27161;SDS011;54464;50.558;9.704;2022-12-11T04:02:11;11.77;;;7.93;;
27161;SDS011;54464;50.558;9.704;2022-12-11T04:04:37;10.80;;;8.53;;
27161;SDS011;54464;50.558;9.704;2022-12-11T04:07:04;12.97;;;9.10;;
27161;SDS011;54464;50.558;9.704;2022-12-11T04:09:29;13.07;;;9.37;;
27161;SDS011;54464;50.558;9.704;2022-12-11T04:11:55;13.17;;;9.20;;
27161;SDS011;54464;50.558;9.704;2022-12-11T04:14:21;16.30;;;9.40;;
27161;SDS011;54464;50.558;9.704;2022-12-11T04:17:05;12.90;;;9.33;;
27161;SDS011;54464;50.558;9.704;2022-12-11T04:19:30;13.63;;;10.30;;
27161;SDS011;54464;50.558;9.704;2022-12-11T04:22:15;12.87;;;10.13;;
27161;SDS011;54464;50.558;9.704;2022-12-11T04:25:01;13.93;;;10.57;;
27161;SDS011;54464;50.558;9.704;2022-12-11T04:27:28;16.77;;;11.37;;
27161;SDS011;54464;50.558;9.704;2022-12-11T04:30:13;13.60;;;10.43;;
27161;SDS011;54464;50.558;9.704;2022-12-11T04:32:41;13.77;;;10.43;;
27161;SDS011;54464;50.558;9.704;2022-12-11T04:35:07;14.90;;;11.00;;
27161;SDS011;54464;50.558;9.704;2022-12-11T04:37:36;13.60;;;10.57;;
27161;SDS011;54464;50.558;9.704;2022-12-11T04:40:03;14.07;;;10.77;;
27161;SDS011;54464;50.558;9.704;2022-12-11T04:42:30;13.07;;;10.17;;
27161;SDS011;54464;50.558;9.704;2022-12-11T04:44:56;15.10;;;11.30;;
27161;SDS011;54464;50.558;9.704;2022-12-11T04:47:21;16.63;;;11.63;;
27161;SDS011;54464;50.558;9.704;2022-12-11T04:49:47;13.87;;;10.77;;
27161;SDS011;54464;50.558;9.704;2022-12-11T04:52:13;15.43;;;11.83;;
27161;SDS011;54464;50.558;9.704;2022-12-11T04:54:38;15.83;;;11.50;;
27161;SDS011;54464;50.558;9.704;2022-12-11T04:57:04;15.13;;;11.30;;
27161;SDS011;54464;50.558;9.704;2022-12-11T04:59:33;16.37;;;12.37;;
27161;SDS011;54464;50.558;9.704;2022-12-11T05:01:59;15.90;;;11.83;;
27161;SDS011;54464;50.558;9.704;2022-12-11T05:04:24;17.40;;;12.57;;
27161;SDS011;54464;50.558;9.704;2022-12-11T05:06:54;16.33;;;11.83;;
27161;SDS011;54464;50.558;9.704;2022-12-11T05:09:20;17.27;;;12.23;;
27161;SDS011;54464;50.558;9.704;2022-12-11T05:11:45;17.03;;;11.67;;
27161;SDS011;54464;50.558;9.704;2022-12-11T05:14:14;15.60;;;11.77;;
27161;SDS011;54464;50.558;9.704;2022-12-11T05:16:39;16.93;;;12.07;;
27161;SDS011;54464;50.558;9.704;2022-12-11T05:19:05;15.43;;;11.63;;
27161;SDS011;54464;50.558;9.704;2022-12-11T05:21:31;16.40;;;11.93;;
27161;SDS011;54464;50.558;9.704;2022-12-11T05:23:57;14.37;;;11.47;;
27161;SDS011;54464;50.558;9.704;2022-12-11T05:26:22;15.83;;;11.67;;
27161;SDS011;54464;50.558;9.704;2022-12-11T05:28:51;15.43;;;11.50;;
27161;SDS011;54464;50.558;9.704;2022-12-11T05:31:19;15.40;;;11.57;;
27161;SDS011;54464;50.558;9.704;2022-12-11T05:33:46;16.27;;;11.40;;
27161;SDS011;54464;50.558;9.704;2022-12-11T05:36:24;15.73;;;11.23;;
27161;SDS011;54464;50.558;9.704;2022-12-11T05:38:54;14.53;;;11.50;;
27161;SDS011;54464;50.558;9.704;2022-12-11T05:41:22;15.90;;;11.97;;
27161;SDS011;54464;50.558;9.704;2022-12-11T05:43:49;15.47;;;11.73;;
27161;SDS011;54464;50.558;9.704;2022-12-11T05:46:16;15.97;;;11.80;;
27161;SDS011;54464;50.558;9.704;2022-12-11T05:48:45;19.17;;;13.10;;
27161;SDS011;54464;50.558;9.704;2022-12-11T05:51:13;18.40;;;12.13;;
27161;SDS011;54464;50.558;9.704;2022-12-11T05:53:39;16.57;;;12.27;;
27161;SDS011;54464;50.558;9.704;2022-12-11T05:56:07;17.80;;;12.93;;
27161;SDS011;54464;50.558;9.704;2022-12-11T05:58:45;19.17;;;13.47;;
27161;SDS011;54464;50.558;9.704;2022-12-11T06:01:16;17.90;;;12.33;;
27161;SDS011;54464;50.558;9.704;2022-12-11T06:03:47;18.40;;;13.30;;
27161;SDS011;54464;50.558;9.704;2022-12-11T06:06:13;18.07;;;13.63;;
27161;SDS011;54464;50.558;9.704;2022-12-11T06:08:39;22.10;;;14.47;;
27161;SDS011;54464;50.558;9.704;2022-12-11T06:11:05;18.33;;;13.30;;
27161;SDS011;54464;50.558;9.704;2022-12-11T06:13:31;17.03;;;12.80;;
27161;SDS011;54464;50.558;9.704;2022-12-11T06:16:01;18.67;;;13.53;;
27161;SDS011;54464;50.558;9.704;2022-12-11T06:18:30;21.17;;;13.77;;
27161;SDS011;54464;50.558;9.704;2022-12-11T06:21:00;19.60;;;13.07;;
27161;SDS011;54464;50.558;9.704;2022-12-11T06:23:26;19.67;;;14.07;;
27161;SDS011;54464;50.558;9.704;2022-12-11T06:25:51;20.57;;;14.27;;
27161;SDS011;54464;50.558;9.704;2022-12-11T06:28:17;22.20;;;14.60;;
27161;SDS011;54464;50.558;9.704;2022-12-11T06:30:43;16.13;;;11.87;;
27161;SDS011;54464;50.558;9.704;2022-12-11T06:33:09;18.70;;;12.77;;
27161;SDS011;54464;50.558;9.704;2022-12-11T06:35:34;18.90;;;13.40;;
27161;SDS011;54464;50.558;9.704;2022-12-11T06:38:00;18.47;;;13.90;;
27161;SDS011;54464;50.558;9.704;2022-12-11T06:40:26;21.67;;;14.23;;
27161;SDS011;54464;50.558;9.704;2022-12-11T06:42:52;17.93;;;12.90;;
27161;SDS011;54464;50.558;9.704;2022-12-11T06:45:18;20.47;;;13.93;;
27161;SDS011;54464;50.558;9.704;2022-12-11T06:47:44;20.73;;;14.20;;
27161;SDS011;54464;50.558;9.704;2022-12-11T06:50:09;21.73;;;14.93;;
27161;SDS011;54464;50.558;9.704;2022-12-11T06:52:35;20.07;;;14.33;;
27161;SDS011;54464;50.558;9.704;2022-12-11T06:55:01;20.20;;;14.73;;
27161;SDS011;54464;50.558;9.704;2022-12-11T06:57:26;18.17;;;12.90;;
27161;SDS011;54464;50.558;9.704;2022-12-11T06:59:52;19.90;;;14.37;;
27161;SDS011;54464;50.558;9.704;2022-12-11T07:02:18;19.80;;;13.77;;
27161;SDS011;54464;50.558;9.704;2022-12-11T07:04:44;18.83;;;13.27;;
27161;SDS011;54464;50.558;9.704;2022-12-11T07:07:10;18.67;;;13.13;;
27161;SDS011;54464;50.558;9.704;2022-12-11T07:09:37;20.83;;;14.40;;
27161;SDS011;54464;50.558;9.704;2022-12-11T07:12:04;18.90;;;13.93;;
27161;SDS011;54464;50.558;9.704;2022-12-11T07:14:30;19.83;;;13.43;;
27161;SDS011;54464;50.558;9.704;2022-12-11T07:16:57;18.73;;;13.20;;
27161;SDS011;54464;50.558;9.704;2022-12-11T07:19:23;18.87;;;13.30;;
27161;SDS011;54464;50.558;9.704;2022-12-11T07:21:49;17.80;;;12.93;;
27161;SDS011;54464;50.558;9.704;2022-12-11T07:24:15;17.80;;;13.57;;
27161;SDS011;54464;50.558;9.704;2022-12-11T07:26:40;18.20;;;13.13;;
27161;SDS011;54464;50.558;9.704;2022-12-11T07:29:06;17.37;;;12.57;;
27161;SDS011;54464;50.558;9.704;2022-12-11T07:31:32;16.97;;;11.77;;
27161;SDS011;54464;50.558;9.704;2022-12-11T07:33:59;18.23;;;13.03;;
27161;SDS011;54464;50.558;9.704;2022-12-11T07:36:27;19.80;;;13.37;;
27161;SDS011;54464;50.558;9.704;2022-12-11T07:38:53;19.80;;;14.20;;
27161;SDS011;54464;50.558;9.704;2022-12-11T07:41:19;18.63;;;13.10;;
27161;SDS011;54464;50.558;9.704;2022-12-11T07:43:45;19.87;;;13.63;;
27161;SDS011;54464;50.558;9.704;2022-12-11T07:46:15;19.87;;;14.20;;
27161;SDS011;54464;50.558;9.704;2022-12-11T07:48:44;21.40;;;14.83;;
27161;SDS011;54464;50.558;9.704;2022-12-11T07:51:24;17.47;;;13.07;;
27161;SDS011;54464;50.558;9.704;2022-12-11T07:53:58;21.30;;;13.57;;
27161;SDS011;54464;50.558;9.704;2022-12-11T07:56:26;19.17;;;13.40;;
27161;SDS011;54464;50.558;9.704;2022-12-11T07:58:52;22.23;;;14.87;;
27161;SDS011;54464;50.558;9.704;2022-12-11T08:01:19;22.37;;;14.67;;
27161;SDS011;54464;50.558;9.704;2022-12-11T08:03:47;19.30;;;13.90;;
27161;SDS011;54464;50.558;9.704;2022-12-11T08:06:13;19.97;;;14.50;;
27161;SDS011;54464;50.558;9.704;2022-12-11T08:08:39;24.10;;;15.30;;
27161;SDS011;54464;50.558;9.704;2022-12-11T08:11:07;21.27;;;14.93;;
27161;SDS011;54464;50.558;9.704;2022-12-11T08:13:34;21.87;;;14.57;;
27161;SDS011;54464;50.558;9.704;2022-12-11T08:16:04;22.13;;;14.97;;
27161;SDS011;54464;50.558;9.704;2022-12-11T08:18:34;20.67;;;13.80;;
27161;SDS011;54464;50.558;9.704;2022-12-11T08:21:07;19.27;;;13.10;;
27161;SDS011;54464;50.558;9.704;2022-12-11T08:23:35;23.20;;;14.50;;
27161;SDS011;54464;50.558;9.704;2022-12-11T08:26:04;22.00;;;13.90;;
27161;SDS011;54464;50.558;9.704;2022-12-11T08:28:31;21.00;;;13.87;;
27161;SDS011;54464;50.558;9.704;2022-12-11T08:30:57;20.23;;;13.77;;
27161;SDS011;54464;50.558;9.704;2022-12-11T08:33:24;20.47;;;14.00;;
27161;SDS011;54464;50.558;9.704;2022-12-11T08:35:49;20.80;;;14.03;;
27161;SDS011;54464;50.558;9.704;2022-12-11T08:38:15;20.43;;;14.43;;
27161;SDS011;54464;50.558;9.704;2022-12-11T08:40:41;21.90;;;14.77;;
27161;SDS011;54464;50.558;9.704;2022-12-11T08:43:06;23.80;;;15.00;;
27161;SDS011;54464;50.558;9.704;2022-12-11T08:45:32;19.03;;;13.70;;
27161;SDS011;54464;50.558;9.704;2022-12-11T08:47:58;18.73;;;12.57;;
27161;SDS011;54464;50.558;9.704;2022-12-11T08:50:24;19.77;;;13.40;;
27161;SDS011;54464;50.558;9.704;2022-12-11T08:52:50;25.37;;;16.43;;
27161;SDS011;54464;50.558;9.704;2022-12-11T08:55:17;17.67;;;12.73;;
27161;SDS011;54464;50.558;9.704;2022-12-11T08:57:43;17.87;;;13.20;;
27161;SDS011;54464;50.558;9.704;2022-12-11T09:00:10;19.20;;;14.17;;
27161;SDS011;54464;50.558;9.704;2022-12-11T09:02:36;19.40;;;13.73;;
27161;SDS011;54464;50.558;9.704;2022-12-11T09:05:02;24.30;;;16.53;;
27161;SDS011;54464;50.558;9.704;2022-12-11T09:07:32;21.63;;;14.30;;
27161;SDS011;54464;50.558;9.704;2022-12-11T09:09:58;14.90;;;11.10;;
27161;SDS011;54464;50.558;9.704;2022-12-11T09:12:25;15.57;;;10.20;;
27161;SDS011;54464;50.558;9.704;2022-12-11T09:14:51;14.67;;;10.43;;
27161;SDS011;54464;50.558;9.704;2022-12-11T09:17:17;16.33;;;11.57;;
27161;SDS011;54464;50.558;9.704;2022-12-11T09:19:42;17.90;;;13.30;;
27161;SDS011;54464;50.558;9.704;2022-12-11T09:22:08;18.27;;;12.83;;
27161;SDS011;54464;50.558;9.704;2022-12-11T09:24:35;21.87;;;14.60;;
27161;SDS011;54464;50.558;9.704;2022-12-11T09:27:02;18.83;;;13.40;;
27161;SDS011;54464;50.558;9.704;2022-12-11T09:29:28;21.37;;;13.70;;
27161;SDS011;54464;50.558;9.704;2022-12-11T09:31:54;19.93;;;12.97;;
27161;SDS011;54464;50.558;9.704;2022-12-11T09:34:20;18.67;;;12.57;;
27161;SDS011;54464;50.558;9.704;2022-12-11T09:36:49;19.00;;;13.90;;
27161;SDS011;54464;50.558;9.704;2022-12-11T09:39:15;21.93;;;13.90;;
27161;SDS011;54464;50.558;9.704;2022-12-11T09:47:13;18.23;;;12.80;;
27161;SDS011;54464;50.558;9.704;2022-12-11T09:49:41;19.30;;;14.33;;
27161;SDS011;54464;50.558;9.704;2022-12-11T09:52:10;19.07;;;13.40;;
27161;SDS011;54464;50.558;9.704;2022-12-11T09:54:48;19.23;;;13.10;;
27161;SDS011;54464;50.558;9.704;2022-12-11T09:57:31;17.23;;;12.83;;
27161;SDS011;54464;50.558;9.704;2022-12-11T10:06:02;22.13;;;14.70;;
27161;SDS011;54464;50.558;9.704;2022-12-11T10:11:26;24.23;;;14.93;;
27161;SDS011;54464;50.558;9.704;2022-12-11T10:17:03;19.60;;;13.33;;
27161;SDS011;54464;50.558;9.704;2022-12-11T10:19:35;21.40;;;15.50;;
27161;SDS011;54464;50.558;9.704;2022-12-11T10:22:01;22.83;;;15.03;;
27161;SDS011;54464;50.558;9.704;2022-12-11T10:24:33;20.80;;;14.73;;
27161;SDS011;54464;50.558;9.704;2022-12-11T10:27:17;24.03;;;15.00;;
27161;SDS011;54464;50.558;9.704;2022-12-11T10:29:45;25.50;;;17.03;;
27161;SDS011;54464;50.558;9.704;2022-12-11T10:32:36;22.13;;;13.73;;
27161;SDS011;54464;50.558;9.704;2022-12-11T10:35:07;21.60;;;14.43;;
27161;SDS011;54464;50.558;9.704;2022-12-11T10:37:41;17.40;;;12.37;;
27161;SDS011;54464;50.558;9.704;2022-12-11T10:40:07;19.00;;;12.70;;
27161;SDS011;54464;50.558;9.704;2022-12-11T10:42:34;17.70;;;12.37;;
27161;SDS011;54464;50.558;9.704;2022-12-11T10:45:00;18.90;;;13.20;;
27161;SDS011;54464;50.558;9.704;2022-12-11T10:47:28;20.13;;;13.57;;
27161;SDS011;54464;50.558;9.704;2022-12-11T10:49:58;20.67;;;13.83;;
27161;SDS011;54464;50.558;9.704;2022-12-11T10:54:54;22.40;;;15.10;;
27161;SDS011;54464;50.558;9.704;2022-12-11T10:57:35;22.87;;;15.30;;
27161;SDS011;54464;50.558;9.704;2022-12-11T11:00:03;19.13;;;13.27;;
27161;SDS011;54464;50.558;9.704;2022-12-11T11:02:31;28.53;;;15.93;;
27161;SDS011;54464;50.558;9.704;2022-12-11T11:05:00;73.80;;;34.67;;
27161;SDS011;54464;50.558;9.704;2022-12-11T11:07:40;17.63;;;12.70;;
27161;SDS011;54464;50.558;9.704;2022-12-11T11:12:45;19.87;;;13.13;;
27161;SDS011;54464;50.558;9.704;2022-12-11T11:15:13;15.10;;;11.00;;
27161;SDS011;54464;50.558;9.704;2022-12-11T11:17:46;17.03;;;11.20;;
27161;SDS011;54464;50.558;9.704;2022-12-11T11:20:15;16.47;;;11.40;;
27161;SDS011;54464;50.558;9.704;2022-12-11T11:22:48;16.60;;;11.00;;
27161;SDS011;54464;50.558;9.704;2022-12-11T11:25:19;16.73;;;11.20;;
27161;SDS011;54464;50.558;9.704;2022-12-11T11:30:27;19.57;;;11.90;;
27161;SDS011;54464;50.558;9.704;2022-12-11T11:33:19;16.37;;;10.93;;
27161;SDS011;54464;50.558;9.704;2022-12-11T11:35:53;18.23;;;12.50;;
27161;SDS011;54464;50.558;9.704;2022-12-11T11:38:22;20.53;;;13.60;;
27161;SDS011;54464;50.558;9.704;2022-12-11T11:44:07;18.47;;;12.70;;
27161;SDS011;54464;50.558;9.704;2022-12-11T11:46:41;20.83;;;13.43;;
27161;SDS011;54464;50.558;9.704;2022-12-11T11:52:40;18.13;;;12.23;;
27161;SDS011;54464;50.558;9.704;2022-12-11T11:55:17;18.10;;;12.20;;
27161;SDS011;54464;50.558;9.704;2022-12-11T12:00:33;19.43;;;12.67;;
27161;SDS011;54464;50.558;9.704;2022-12-11T12:03:08;19.53;;;12.23;;
27161;SDS011;54464;50.558;9.704;2022-12-11T12:08:54;22.10;;;14.00;;
27161;SDS011;54464;50.558;9.704;2022-12-11T12:25:34;24.03;;;15.37;;
27161;SDS011;54464;50.558;9.704;2022-12-11T12:28:04;23.30;;;14.13;;
27161;SDS011;54464;50.558;9.704;2022-12-11T12:33:28;20.97;;;14.30;;
27161;SDS011;54464;50.558;9.704;2022-12-11T12:36:04;20.23;;;14.73;;
27161;SDS011;54464;50.558;9.704;2022-12-11T12:38:57;21.63;;;15.03;;
27161;SDS011;54464;50.558;9.704;2022-12-11T12:44:19;22.60;;;14.73;;
27161;SDS011;54464;50.558;9.704;2022-12-11T12:49:32;22.67;;;14.77;;
27161;SDS011;54464;50.558;9.704;2022-12-11T12:52:10;24.07;;;15.10;;
27161;SDS011;54464;50.558;9.704;2022-12-11T12:54:43;25.30;;;14.67;;
27161;SDS011;54464;50.558;9.704;2022-12-11T12:57:31;22.73;;;14.50;;
27161;SDS011;54464;50.558;9.704;2022-12-11T12:59:59;27.20;;;16.37;;
27161;SDS011;54464;50.558;9.704;2022-12-11T13:02:24;22.43;;;15.17;;
27161;SDS011;54464;50.558;9.704;2022-12-11T13:05:02;27.17;;;17.97;;
27161;SDS011;54464;50.558;9.704;2022-12-11T13:07:31;27.80;;;17.30;;
27161;SDS011;54464;50.558;9.704;2022-12-11T13:10:06;24.90;;;16.27;;
27161;SDS011;54464;50.558;9.704;2022-12-11T13:12:47;26.90;;;16.97;;
27161;SDS011;54464;50.558;9.704;2022-12-11T13:21:01;26.20;;;16.60;;
27161;SDS011;54464;50.558;9.704;2022-12-11T13:23:32;26.90;;;17.83;;
27161;SDS011;54464;50.558;9.704;2022-12-11T13:25:59;27.73;;;18.63;;
27161;SDS011;54464;50.558;9.704;2022-12-11T13:31:06;30.53;;;17.80;;
27161;SDS011;54464;50.558;9.704;2022-12-11T13:33:47;27.53;;;17.57;;
27161;SDS011;54464;50.558;9.704;2022-12-11T13:38:54;28.07;;;17.90;;
27161;SDS011;54464;50.558;9.704;2022-12-11T13:41:24;27.13;;;17.43;;
27161;SDS011;54464;50.558;9.704;2022-12-11T13:43:51;27.67;;;17.80;;
27161;SDS011;54464;50.558;9.704;2022-12-11T13:46:26;28.10;;;18.07;;
27161;SDS011;54464;50.558;9.704;2022-12-11T13:48:56;29.60;;;18.43;;
27161;SDS011;54464;50.558;9.704;2022-12-11T13:51:28;30.63;;;18.40;;
27161;SDS011;54464;50.558;9.704;2022-12-11T13:54:13;32.87;;;20.40;;
27161;SDS011;54464;50.558;9.704;2022-12-11T13:59:29;33.57;;;21.53;;
27161;SDS011;54464;50.558;9.704;2022-12-11T14:02:00;30.57;;;19.37;;
27161;SDS011;54464;50.558;9.704;2022-12-11T14:04:29;28.03;;;18.03;;
27161;SDS011;54464;50.558;9.704;2022-12-11T14:06:58;28.80;;;17.43;;
27161;SDS011;54464;50.558;9.704;2022-12-11T14:09:25;27.33;;;16.77;;
27161;SDS011;54464;50.558;9.704;2022-12-11T14:11:52;24.80;;;15.10;;
27161;SDS011;54464;50.558;9.704;2022-12-11T14:14:22;26.03;;;16.53;;
27161;SDS011;54464;50.558;9.704;2022-12-11T14:16:58;24.23;;;15.67;;
27161;SDS011;54464;50.558;9.704;2022-12-11T14:19:24;25.57;;;16.00;;
27161;SDS011;54464;50.558;9.704;2022-12-11T14:21:55;26.73;;;16.30;;
27161;SDS011;54464;50.558;9.704;2022-12-11T14:24:22;25.87;;;17.33;;
27161;SDS011;54464;50.558;9.704;2022-12-11T14:26:49;26.57;;;17.13;;
27161;SDS011;54464;50.558;9.704;2022-12-11T14:29:26;25.23;;;15.47;;
27161;SDS011;54464;50.558;9.704;2022-12-11T14:31:54;26.20;;;16.23;;
27161;SDS011;54464;50.558;9.704;2022-12-11T14:34:30;25.20;;;15.17;;
27161;SDS011;54464;50.558;9.704;2022-12-11T14:36:59;24.50;;;15.10;;
27161;SDS011;54464;50.558;9.704;2022-12-11T14:39:39;23.37;;;15.03;;
27161;SDS011;54464;50.558;9.704;2022-12-11T14:42:20;25.63;;;15.70;;
27161;SDS011;54464;50.558;9.704;2022-12-11T14:44:55;25.03;;;15.63;;
27161;SDS011;54464;50.558;9.704;2022-12-11T14:47:27;24.27;;;15.93;;
27161;SDS011;54464;50.558;9.704;2022-12-11T14:52:47;26.47;;;15.97;;
27161;SDS011;54464;50.558;9.704;2022-12-11T14:55:19;26.27;;;15.97;;
27161;SDS011;54464;50.558;9.704;2022-12-11T14:57:49;27.67;;;16.73;;
27161;SDS011;54464;50.558;9.704;2022-12-11T15:00:29;29.43;;;17.70;;
27161;SDS011;54464;50.558;9.704;2022-12-11T15:03:00;28.53;;;17.03;;
27161;SDS011;54464;50.558;9.704;2022-12-11T15:05:29;27.47;;;17.10;;
27161;SDS011;54464;50.558;9.704;2022-12-11T15:08:16;26.33;;;17.43;;
27161;SDS011;54464;50.558;9.704;2022-12-11T15:13:38;29.67;;;17.80;;
27161;SDS011;54464;50.558;9.704;2022-12-11T15:16:18;28.40;;;17.00;;
27161;SDS011;54464;50.558;9.704;2022-12-11T15:18:46;29.63;;;17.77;;
27161;SDS011;54464;50.558;9.704;2022-12-11T15:21:14;28.03;;;17.43;;
27161;SDS011;54464;50.558;9.704;2022-12-11T15:26:16;24.47;;;16.23;;
27161;SDS011;54464;50.558;9.704;2022-12-11T15:28:42;26.43;;;15.77;;
27161;SDS011;54464;50.558;9.704;2022-12-11T15:31:41;27.33;;;16.37;;
27161;SDS011;54464;50.558;9.704;2022-12-11T15:34:00;29.37;;;16.90;;
27161;SDS011;54464;50.558;9.704;2022-12-11T15:38:54;28.10;;;17.27;;
27161;SDS011;54464;50.558;9.704;2022-12-11T15:41:21;29.27;;;19.07;;
27161;SDS011;54464;50.558;9.704;2022-12-11T15:43:48;27.10;;;17.00;;
27161;SDS011;54464;50.558;9.704;2022-12-11T15:46:16;26.87;;;17.60;;
27161;SDS011;54464;50.558;9.704;2022-12-11T15:48:42;29.43;;;19.37;;
27161;SDS011;54464;50.558;9.704;2022-12-11T15:51:08;24.57;;;15.93;;
27161;SDS011;54464;50.558;9.704;2022-12-11T15:53:34;27.17;;;17.87;;
27161;SDS011;54464;50.558;9.704;2022-12-11T15:56:08;34.90;;;22.70;;
27161;SDS011;54464;50.558;9.704;2022-12-11T15:58:38;26.37;;;17.20;;
27161;SDS011;54464;50.558;9.704;2022-12-11T16:01:04;27.77;;;16.93;;
27161;SDS011;54464;50.558;9.704;2022-12-11T16:03:30;38.13;;;25.00;;
27161;SDS011;54464;50.558;9.704;2022-12-11T16:05:55;29.10;;;18.77;;
27161;SDS011;54464;50.558;9.704;2022-12-11T16:08:22;24.50;;;15.93;;
27161;SDS011;54464;50.558;9.704;2022-12-11T16:10:49;25.23;;;15.90;;
27161;SDS011;54464;50.558;9.704;2022-12-11T16:13:17;24.93;;;15.53;;
27161;SDS011;54464;50.558;9.704;2022-12-11T16:15:43;37.10;;;24.67;;
27161;SDS011;54464;50.558;9.704;2022-12-11T16:18:14;28.63;;;18.17;;
27161;SDS011;54464;50.558;9.704;2022-12-11T16:20:42;27.20;;;17.10;;
27161;SDS011;54464;50.558;9.704;2022-12-11T16:23:10;27.43;;;17.27;;